createdAt,value
2019-03-26T00:00:29.012Z,96.30
2019-03-26T00:02:57.594Z,96.40
2019-03-26T00:05:26.052Z,96.80
2019-03-26T00:07:54.532Z,97.40
2019-03-26T00:10:22.990Z,97.80
2019-03-26T00:12:51.434Z,98.00
2019-03-26T00:15:19.958Z,98.30
2019-03-26T00:17:48.450Z,98.50
2019-03-26T00:20:16.865Z,98.70
2019-03-26T00:22:45.301Z,98.80
2019-03-26T00:25:13.747Z,98.90
2019-03-26T00:27:42.167Z,99.00
2019-03-26T00:30:11.071Z,99.10
2019-03-26T00:32:39.516Z,99.20
2019-03-26T00:35:08.131Z,99.30
2019-03-26T00:37:36.652Z,99.40
2019-03-26T00:40:06.904Z,99.40
2019-03-26T00:42:35.385Z,99.50
2019-03-26T00:45:04.837Z,99.60
2019-03-26T00:47:33.311Z,99.80
2019-03-26T00:50:01.718Z,99.80
2019-03-26T00:52:30.156Z,99.90
2019-03-26T00:54:58.618Z,99.90
2019-03-26T00:57:27.079Z,99.90
2019-03-26T00:59:55.495Z,99.90
2019-03-26T01:02:23.923Z,99.90
2019-03-26T01:04:52.518Z,99.90
2019-03-26T01:07:21.044Z,99.90
2019-03-26T01:10:10.381Z,99.90
2019-03-26T01:12:41.787Z,99.90
2019-03-26T01:15:10.312Z,99.90
2019-03-26T01:17:38.740Z,99.90
2019-03-26T01:20:07.358Z,99.90
2019-03-26T01:22:36.206Z,99.90
2019-03-26T01:25:05.777Z,99.90
2019-03-26T01:27:34.201Z,99.90
2019-03-26T01:30:02.690Z,99.90
2019-03-26T01:32:31.118Z,99.90
2019-03-26T01:34:59.531Z,99.90
2019-03-26T01:37:28.016Z,99.90
2019-03-26T01:39:56.435Z,99.90
2019-03-26T01:42:24.867Z,99.90
2019-03-26T01:44:53.338Z,99.90
2019-03-26T01:47:21.784Z,99.90
2019-03-26T01:49:50.205Z,99.90
2019-03-26T01:52:18.701Z,99.90
2019-03-26T01:54:47.158Z,99.90
2019-03-26T01:57:15.616Z,99.90
2019-03-26T01:59:44.599Z,99.90
2019-03-26T02:02:13.017Z,99.90
2019-03-26T02:04:41.524Z,99.90
2019-03-26T02:07:09.973Z,99.90
2019-03-26T02:09:38.476Z,99.90
2019-03-26T02:12:07.048Z,99.90
2019-03-26T02:14:35.512Z,99.90
2019-03-26T02:17:04.062Z,99.90
2019-03-26T02:19:32.556Z,99.90
2019-03-26T02:22:00.994Z,99.90
2019-03-26T02:24:29.433Z,99.90
2019-03-26T02:26:57.870Z,99.90
2019-03-26T02:29:26.292Z,99.90
2019-03-26T02:31:54.818Z,99.90
2019-03-26T02:34:23.339Z,99.90
2019-03-26T02:36:53.334Z,99.90
2019-03-26T02:39:21.779Z,99.90
2019-03-26T02:41:50.194Z,99.90
2019-03-26T02:44:18.642Z,99.90
2019-03-26T02:46:47.076Z,99.90
2019-03-26T02:49:15.495Z,99.90
2019-03-26T02:51:43.929Z,99.90
2019-03-26T02:54:12.465Z,99.90
2019-03-26T02:56:40.958Z,99.90
2019-03-26T02:59:09.375Z,99.90
2019-03-26T03:01:37.807Z,99.90
2019-03-26T03:04:06.290Z,99.90
2019-03-26T03:06:34.764Z,99.90
2019-03-26T03:09:04.939Z,99.90
2019-03-26T03:11:33.463Z,99.90
2019-03-26T03:14:01.927Z,99.90
2019-03-26T03:16:30.382Z,99.90
2019-03-26T03:18:58.799Z,99.90
2019-03-26T03:21:28.520Z,99.90
2019-03-26T03:23:57.012Z,99.90
2019-03-26T03:26:27.033Z,99.90
2019-03-26T03:28:55.569Z,99.90
2019-03-26T03:31:23.976Z,99.90
2019-03-26T03:33:52.424Z,99.90
2019-03-26T03:36:20.878Z,99.90
2019-03-26T03:38:49.323Z,99.90
2019-03-26T03:41:17.740Z,99.90
2019-03-26T03:43:46.243Z,99.90
2019-03-26T03:46:14.777Z,99.90
2019-03-26T03:48:45.049Z,99.90
2019-03-26T03:51:16.446Z,99.90
2019-03-26T03:53:44.995Z,99.90
2019-03-26T03:56:16.223Z,99.90
2019-03-26T03:58:47.576Z,99.90
2019-03-26T04:01:28.949Z,99.90
2019-03-26T04:03:57.370Z,99.90
2019-03-26T04:06:25.828Z,99.90
2019-03-26T04:08:54.306Z,99.90
2019-03-26T04:11:22.730Z,99.90
2019-03-26T04:13:51.205Z,99.90
2019-03-26T04:16:19.718Z,99.90
2019-03-26T04:18:48.171Z,99.90
2019-03-26T04:21:16.683Z,99.90
2019-03-26T04:23:45.143Z,99.90
2019-03-26T04:26:13.644Z,99.90
2019-03-26T04:28:42.058Z,99.90
2019-03-26T04:31:10.995Z,99.90
2019-03-26T04:33:39.487Z,99.90
2019-03-26T04:36:24.239Z,99.90
2019-03-26T04:38:38.079Z,99.90
2019-03-26T04:41:06.511Z,99.90
2019-03-26T04:43:34.939Z,99.90
2019-03-26T04:46:03.371Z,99.90
2019-03-26T04:48:31.821Z,99.90
2019-03-26T04:51:00.323Z,99.90
2019-03-26T04:53:28.767Z,99.90
2019-03-26T04:55:57.192Z,99.90
2019-03-26T04:58:25.639Z,99.90
2019-03-26T05:00:54.142Z,99.90
2019-03-26T05:03:22.558Z,99.90
2019-03-26T05:05:51.031Z,99.90
2019-03-26T05:08:19.469Z,99.90
2019-03-26T05:10:49.261Z,99.90
2019-03-26T05:13:17.830Z,99.90
2019-03-26T05:15:46.319Z,99.90
2019-03-26T05:18:14.811Z,99.90
2019-03-26T05:20:43.255Z,99.90
2019-03-26T05:23:11.685Z,99.90
2019-03-26T05:25:40.102Z,99.90
2019-03-26T05:28:08.577Z,99.90
2019-03-26T05:30:37.079Z,99.90
2019-03-26T05:33:05.507Z,99.90
2019-03-26T05:35:34.029Z,99.90
2019-03-26T05:38:02.460Z,99.90
2019-03-26T05:40:31.726Z,99.90
2019-03-26T05:43:00.175Z,99.90
2019-03-26T05:45:28.604Z,99.90
2019-03-26T05:48:03.655Z,99.90
2019-03-26T05:50:32.133Z,99.90
2019-03-26T05:53:01.571Z,99.90
2019-03-26T05:55:30.030Z,99.90
2019-03-26T05:57:58.454Z,99.90
2019-03-26T06:00:27.284Z,99.90
2019-03-26T06:02:55.962Z,99.90
2019-03-26T06:05:24.479Z,99.90
2019-03-26T06:07:52.946Z,99.90
2019-03-26T06:10:21.468Z,99.90
2019-03-26T06:12:50.398Z,99.90
2019-03-26T06:15:18.945Z,99.90
2019-03-26T06:17:47.503Z,99.90
2019-03-26T06:20:17.050Z,99.90
2019-03-26T06:22:45.488Z,99.90
2019-03-26T06:25:14.297Z,99.90
2019-03-26T06:27:42.759Z,99.90
2019-03-26T06:30:11.456Z,99.90
2019-03-26T06:32:39.939Z,99.90
2019-03-26T06:35:09.604Z,99.90
2019-03-26T06:37:38.156Z,99.90
2019-03-26T06:40:08.334Z,99.90
2019-03-26T06:42:36.865Z,97.20
2019-03-26T06:45:11.756Z,96.30
2019-03-26T06:47:40.156Z,95.30
2019-03-26T06:50:12.065Z,94.00
2019-03-26T06:52:40.518Z,92.60
2019-03-26T06:55:10.682Z,93.40
2019-03-26T06:57:39.412Z,94.50
2019-03-26T07:00:09.972Z,94.70
2019-03-26T07:02:50.722Z,94.00
2019-03-26T07:05:19.136Z,93.00
2019-03-26T07:07:47.608Z,91.20
2019-03-26T07:10:35.558Z,91.00
2019-03-26T07:13:03.960Z,87.60
2019-03-26T07:15:32.429Z,83.80
2019-03-26T07:18:00.874Z,80.70
2019-03-26T07:20:29.294Z,76.40
2019-03-26T07:22:57.968Z,71.70
2019-03-26T07:25:26.483Z,70.50
2019-03-26T07:27:54.891Z,68.60
2019-03-26T07:30:45.636Z,69.60
2019-03-26T07:33:14.103Z,72.90
2019-03-26T07:35:42.715Z,76.50
2019-03-26T07:38:11.223Z,81.40
2019-03-26T07:40:39.670Z,86.00
2019-03-26T07:43:08.301Z,89.10
2019-03-26T07:45:36.818Z,89.80
2019-03-26T07:48:05.307Z,88.40
2019-03-26T07:50:33.790Z,86.90
2019-03-26T07:53:02.327Z,87.90
2019-03-26T07:55:30.842Z,87.20
2019-03-26T07:57:59.276Z,88.00
2019-03-26T08:00:36.130Z,88.50
2019-03-26T08:03:05.104Z,87.80
2019-03-26T08:05:33.787Z,88.90
2019-03-26T08:08:02.314Z,89.60
2019-03-26T08:10:30.806Z,87.90
2019-03-26T08:12:59.288Z,89.40
2019-03-26T08:15:27.836Z,86.90
2019-03-26T08:17:56.360Z,86.10
2019-03-26T08:20:24.822Z,86.00
2019-03-26T08:23:02.215Z,88.40
2019-03-26T08:25:33.931Z,90.60
2019-03-26T08:28:05.132Z,87.60
2019-03-26T08:30:32.794Z,85.40
2019-03-26T08:33:01.388Z,88.50
2019-03-26T08:35:30.667Z,89.30
2019-03-26T08:38:11.832Z,89.30
2019-03-26T08:40:29.292Z,89.70
2019-03-26T08:42:57.914Z,90.30
2019-03-26T08:45:26.384Z,89.70
2019-03-26T08:47:54.955Z,89.70
2019-03-26T08:50:23.351Z,90.40
2019-03-26T08:52:51.943Z,89.60
2019-03-26T08:55:20.392Z,89.70
2019-03-26T08:57:48.919Z,87.80
2019-03-26T09:00:18.699Z,86.20
2019-03-26T09:02:47.168Z,85.10
2019-03-26T09:05:15.680Z,83.30
2019-03-26T09:07:45.681Z,82.90
2019-03-26T09:10:14.569Z,81.50
2019-03-26T09:12:43.018Z,80.40
2019-03-26T09:15:14.911Z,78.90
2019-03-26T09:17:51.703Z,78.70
2019-03-26T09:20:23.209Z,78.20
2019-03-26T09:22:51.672Z,78.10
2019-03-26T09:25:20.288Z,79.00
2019-03-26T09:27:48.746Z,76.30
2019-03-26T09:30:17.756Z,75.30
2019-03-26T09:32:48.011Z,73.70
2019-03-26T09:35:16.691Z,74.40
2019-03-26T09:37:45.106Z,74.70
2019-03-26T09:40:13.812Z,74.80
2019-03-26T09:42:42.311Z,75.50
2019-03-26T09:45:15.290Z,74.70
2019-03-26T09:47:42.989Z,73.80
2019-03-26T09:50:15.697Z,73.60
2019-03-26T09:52:44.152Z,73.60
2019-03-26T09:55:12.864Z,73.50
2019-03-26T09:57:41.263Z,72.20
2019-03-26T10:00:11.581Z,71.10
2019-03-26T10:02:42.829Z,70.50
2019-03-26T10:05:10.437Z,69.60
2019-03-26T10:07:39.099Z,69.00
2019-03-26T10:10:09.751Z,68.80
2019-03-26T10:12:38.246Z,68.40
2019-03-26T10:15:07.160Z,68.30
2019-03-26T10:17:35.979Z,68.60
2019-03-26T10:20:06.816Z,68.50
2019-03-26T10:22:38.108Z,69.10
2019-03-26T10:25:10.958Z,70.00
2019-03-26T10:27:38.457Z,69.60
2019-03-26T10:30:09.722Z,69.10
2019-03-26T10:32:38.733Z,68.60
2019-03-26T10:35:07.518Z,68.60
2019-03-26T10:37:36.109Z,68.60
2019-03-26T10:40:08.811Z,68.80
2019-03-26T10:42:37.245Z,68.10
2019-03-26T10:45:07.440Z,69.30
2019-03-26T10:47:35.855Z,69.80
2019-03-26T10:50:06.170Z,69.00
2019-03-26T10:52:34.697Z,69.00
2019-03-26T10:55:03.826Z,68.90
2019-03-26T10:57:32.366Z,68.70
2019-03-26T11:00:00.815Z,68.70
2019-03-26T11:02:29.259Z,68.30
2019-03-26T11:04:57.698Z,67.50
2019-03-26T11:07:26.119Z,67.90
2019-03-26T11:09:54.799Z,66.90
2019-03-26T11:12:23.289Z,67.50
2019-03-26T11:14:51.758Z,67.40
2019-03-26T11:17:20.648Z,68.20
2019-03-26T11:19:49.179Z,68.30
2019-03-26T11:22:17.795Z,68.30
2019-03-26T11:24:46.241Z,68.00
2019-03-26T11:27:14.796Z,66.70
2019-03-26T11:29:43.208Z,66.30
2019-03-26T11:32:11.714Z,65.90
2019-03-26T11:34:40.359Z,65.00
2019-03-26T11:37:08.843Z,64.80
2019-03-26T11:39:37.391Z,65.90
2019-03-26T11:42:05.909Z,66.10
2019-03-26T11:44:34.363Z,65.80
2019-03-26T11:47:03.384Z,66.20
2019-03-26T11:49:31.925Z,66.30
2019-03-26T11:52:00.364Z,65.80
2019-03-26T11:54:28.779Z,66.00
2019-03-26T11:56:57.437Z,66.00
2019-03-26T11:59:25.901Z,65.50
2019-03-26T12:01:54.422Z,65.20
2019-03-26T12:04:22.842Z,66.20
2019-03-26T12:06:53.447Z,66.80
2019-03-26T12:09:23.342Z,67.00
2019-03-26T12:11:51.796Z,65.40
2019-03-26T12:14:20.247Z,65.90
2019-03-26T12:16:48.742Z,65.10
2019-03-26T12:19:17.270Z,65.70
2019-03-26T12:21:45.749Z,65.70
2019-03-26T12:24:14.205Z,64.90
2019-03-26T12:26:42.735Z,63.90
2019-03-26T12:29:11.143Z,63.70
2019-03-26T12:31:39.623Z,64.10
2019-03-26T12:34:13.919Z,65.30
2019-03-26T12:36:42.387Z,64.50
2019-03-26T12:39:10.879Z,64.30
2019-03-26T12:41:42.121Z,63.60
2019-03-26T12:44:10.588Z,63.90
2019-03-26T12:46:39.144Z,63.50
2019-03-26T12:49:07.657Z,64.80
2019-03-26T12:51:39.146Z,63.40
2019-03-26T12:54:06.690Z,63.60
2019-03-26T12:56:35.167Z,64.50
2019-03-26T12:59:03.873Z,65.00
2019-03-26T13:01:32.732Z,63.70
2019-03-26T13:04:11.877Z,63.90
2019-03-26T13:06:31.386Z,64.40
2019-03-26T13:09:00.028Z,64.60
2019-03-26T13:11:28.611Z,64.80
2019-03-26T13:13:57.124Z,64.50
2019-03-26T13:16:27.499Z,64.80
2019-03-26T13:18:55.938Z,65.40
2019-03-26T13:21:24.451Z,65.80
2019-03-26T13:23:53.008Z,66.20
2019-03-26T13:26:21.453Z,65.80
2019-03-26T13:28:49.882Z,64.90
2019-03-26T13:31:18.316Z,64.80
2019-03-26T13:33:46.748Z,64.60
2019-03-26T13:36:15.177Z,62.90
2019-03-26T13:38:43.630Z,63.50
2019-03-26T13:41:12.115Z,64.20
2019-03-26T13:43:40.530Z,63.70
2019-03-26T13:46:09.050Z,64.30
2019-03-26T13:48:37.570Z,63.40
2019-03-26T13:51:06.164Z,63.50
2019-03-26T13:53:34.585Z,63.60
2019-03-26T13:56:03.223Z,63.10
2019-03-26T13:58:31.680Z,62.40
2019-03-26T14:01:00.204Z,63.40
2019-03-26T14:03:28.647Z,63.70
2019-03-26T14:05:57.105Z,62.40
2019-03-26T14:08:25.565Z,63.60
2019-03-26T14:10:53.995Z,63.90
2019-03-26T14:13:22.596Z,63.90
2019-03-26T14:15:51.020Z,63.30
2019-03-26T14:18:19.537Z,64.20
2019-03-26T14:20:47.968Z,64.00
2019-03-26T14:23:16.461Z,63.90
2019-03-26T14:25:45.094Z,63.40
2019-03-26T14:28:13.658Z,63.90
2019-03-26T14:30:43.325Z,64.20
2019-03-26T14:33:11.962Z,63.90
2019-03-26T14:35:40.471Z,63.90
2019-03-26T14:38:08.983Z,63.70
2019-03-26T14:40:37.701Z,64.40
2019-03-26T14:43:06.567Z,63.70
2019-03-26T14:45:37.292Z,63.00
2019-03-26T14:48:05.987Z,62.70
2019-03-26T14:50:34.679Z,60.70
2019-03-26T14:53:03.667Z,59.70
2019-03-26T14:55:32.211Z,59.40
2019-03-26T14:58:00.729Z,59.80
2019-03-26T15:00:30.440Z,59.30
2019-03-26T15:02:58.970Z,59.00
2019-03-26T15:05:27.557Z,58.30
2019-03-26T15:07:56.213Z,58.80
2019-03-26T15:10:24.869Z,57.60
2019-03-26T15:12:54.619Z,56.50
2019-03-26T15:15:23.070Z,56.70
2019-03-26T15:17:51.600Z,56.20
2019-03-26T15:20:20.110Z,56.70
2019-03-26T15:22:48.921Z,56.90
2019-03-26T15:25:17.333Z,57.40
2019-03-26T15:27:46.023Z,57.30
2019-03-26T15:30:17.061Z,57.50
2019-03-26T15:32:45.398Z,57.90
2019-03-26T15:35:14.219Z,57.50
2019-03-26T15:37:42.981Z,58.10
2019-03-26T15:40:11.672Z,58.60
2019-03-26T15:42:40.235Z,59.30
2019-03-26T15:45:10.806Z,60.00
2019-03-26T15:47:39.415Z,60.40
2019-03-26T15:50:09.318Z,60.40
2019-03-26T15:52:42.284Z,60.10
2019-03-26T15:55:10.669Z,60.40
2019-03-26T15:57:39.200Z,59.80
2019-03-26T16:00:09.774Z,59.70
2019-03-26T16:02:38.289Z,60.00
2019-03-26T16:05:07.711Z,60.60
2019-03-26T16:07:36.207Z,61.20
2019-03-26T16:10:06.922Z,61.70
2019-03-26T16:12:41.081Z,61.60
2019-03-26T16:15:07.649Z,61.30
2019-03-26T16:17:38.691Z,61.10
2019-03-26T16:20:07.537Z,60.60
2019-03-26T16:22:36.068Z,61.10
2019-03-26T16:25:05.597Z,60.90
2019-03-26T16:27:34.332Z,60.50
2019-03-26T16:30:03.464Z,60.70
2019-03-26T16:32:31.932Z,60.70
2019-03-26T16:35:00.474Z,60.40
2019-03-26T16:37:28.886Z,60.60
2019-03-26T16:39:57.820Z,61.80
2019-03-26T16:42:26.325Z,61.60
2019-03-26T16:44:54.972Z,62.00
2019-03-26T16:47:23.495Z,61.10
2019-03-26T16:49:52.010Z,60.90
2019-03-26T16:52:20.718Z,60.90
2019-03-26T16:54:49.314Z,60.60
2019-03-26T16:57:17.839Z,60.90
2019-03-26T16:59:46.333Z,60.70
2019-03-26T17:02:14.911Z,60.80
2019-03-26T17:04:46.597Z,60.70
2019-03-26T17:07:13.545Z,60.60
2019-03-26T17:09:42.550Z,61.30
2019-03-26T17:12:11.017Z,61.40
2019-03-26T17:14:39.592Z,61.60
2019-03-26T17:17:08.096Z,61.90
2019-03-26T17:19:36.580Z,62.20
2019-03-26T17:22:05.307Z,61.70
2019-03-26T17:24:33.789Z,61.90
2019-03-26T17:27:02.424Z,62.40
2019-03-26T17:29:30.920Z,62.50
2019-03-26T17:32:01.185Z,62.80
2019-03-26T17:34:29.904Z,63.20
2019-03-26T17:36:58.738Z,63.20
2019-03-26T17:39:27.285Z,63.70
2019-03-26T17:41:55.738Z,64.50
2019-03-26T17:44:24.156Z,64.90
2019-03-26T17:46:54.405Z,65.00
2019-03-26T17:49:23.423Z,65.20
2019-03-26T17:51:51.960Z,65.30
2019-03-26T17:54:20.430Z,65.20
2019-03-26T17:56:49.086Z,65.40
2019-03-26T17:59:17.623Z,65.60
2019-03-26T18:01:46.427Z,65.80
2019-03-26T18:04:16.138Z,66.30
2019-03-26T18:06:44.622Z,66.80
2019-03-26T18:09:13.090Z,66.40
2019-03-26T18:11:48.659Z,66.50
2019-03-26T18:14:17.197Z,66.20
2019-03-26T18:16:45.742Z,66.20
2019-03-26T18:19:14.965Z,66.70
2019-03-26T18:21:51.437Z,67.10
2019-03-26T18:24:13.795Z,67.50
2019-03-26T18:26:42.476Z,67.90
2019-03-26T18:29:10.938Z,68.40
2019-03-26T18:31:39.436Z,68.70
2019-03-26T18:34:09.941Z,68.90
2019-03-26T18:36:38.638Z,69.30
2019-03-26T18:39:08.149Z,69.70
2019-03-26T18:41:38.118Z,70.00
2019-03-26T18:44:06.834Z,70.50
2019-03-26T18:46:35.354Z,70.60
2019-03-26T18:49:04.016Z,70.90
2019-03-26T18:51:32.646Z,71.80
2019-03-26T18:54:01.154Z,72.60
2019-03-26T18:56:37.556Z,73.30
2019-03-26T18:59:06.209Z,74.40
2019-03-26T19:01:34.749Z,74.50
2019-03-26T19:04:03.315Z,74.40
2019-03-26T19:06:31.870Z,73.50
2019-03-26T19:09:00.446Z,73.30
2019-03-26T19:11:29.042Z,73.60
2019-03-26T19:13:57.789Z,74.60
2019-03-26T19:16:26.280Z,75.70
2019-03-26T19:18:54.767Z,76.70
2019-03-26T19:21:23.935Z,77.80
2019-03-26T19:24:03.517Z,78.20
2019-03-26T19:26:23.244Z,78.50
2019-03-26T19:28:51.811Z,78.40
2019-03-26T19:31:20.520Z,78.70
2019-03-26T19:33:49.363Z,79.10
2019-03-26T19:36:17.841Z,79.60
2019-03-26T19:38:47.324Z,80.20
2019-03-26T19:41:15.924Z,81.10
2019-03-26T19:43:44.466Z,81.10
2019-03-26T19:46:12.912Z,81.70
2019-03-26T19:48:41.893Z,82.20
2019-03-26T19:51:10.656Z,81.90
2019-03-26T19:53:39.269Z,82.00
2019-03-26T19:56:08.498Z,82.30
2019-03-26T19:58:37.265Z,82.50
2019-03-26T20:01:05.852Z,82.60
2019-03-26T20:03:34.369Z,82.30
2019-03-26T20:06:12.814Z,82.60
2019-03-26T20:08:33.374Z,82.80
2019-03-26T20:11:01.828Z,82.70
2019-03-26T20:13:30.290Z,82.40
2019-03-26T20:15:58.937Z,82.40
2019-03-26T20:18:27.385Z,83.30
2019-03-26T20:20:55.961Z,83.60
2019-03-26T20:23:24.571Z,84.20
2019-03-26T20:25:53.052Z,84.60
2019-03-26T20:28:21.656Z,85.00
2019-03-26T20:30:50.238Z,84.80
2019-03-26T20:33:18.834Z,84.40
2019-03-26T20:35:47.324Z,84.50
2019-03-26T20:38:15.789Z,85.10
2019-03-26T20:40:44.310Z,85.20
2019-03-26T20:43:12.882Z,85.40
2019-03-26T20:45:41.523Z,85.60
2019-03-26T20:48:09.982Z,86.00
2019-03-26T20:50:38.487Z,85.60
2019-03-26T20:53:07.022Z,85.70
2019-03-26T20:55:36.225Z,86.50
2019-03-26T20:58:04.845Z,86.90
2019-03-26T21:00:42.945Z,87.10
2019-03-26T21:03:11.474Z,87.20
2019-03-26T21:05:40.248Z,87.30
2019-03-26T21:08:08.731Z,86.90
2019-03-26T21:10:37.251Z,87.00
2019-03-26T21:13:05.818Z,86.70
2019-03-26T21:15:34.315Z,87.00
2019-03-26T21:18:02.844Z,87.20
2019-03-26T21:20:31.332Z,87.00
2019-03-26T21:22:59.849Z,87.10
2019-03-26T21:25:28.281Z,86.40
2019-03-26T21:27:56.890Z,86.10
2019-03-26T21:30:25.523Z,86.10
2019-03-26T21:32:54.103Z,86.90
2019-03-26T21:35:22.643Z,86.80
2019-03-26T21:37:51.176Z,86.50
2019-03-26T21:40:19.987Z,85.20
2019-03-26T21:42:48.565Z,84.80
2019-03-26T21:45:19.058Z,84.50
2019-03-26T21:47:47.631Z,85.00
2019-03-26T21:50:16.617Z,85.10
2019-03-26T21:52:45.188Z,85.00
2019-03-26T21:55:13.827Z,84.50
2019-03-26T21:57:42.412Z,85.00
2019-03-26T22:00:11.589Z,85.60
2019-03-26T22:02:40.204Z,85.60
2019-03-26T22:05:09.485Z,86.10
2019-03-26T22:07:38.144Z,85.60
2019-03-26T22:10:10.146Z,86.20
2019-03-26T22:12:38.630Z,86.50
2019-03-26T22:15:10.962Z,87.30
2019-03-26T22:17:39.447Z,86.60
2019-03-26T22:20:08.363Z,86.50
2019-03-26T22:22:36.867Z,86.30
2019-03-26T22:25:09.971Z,86.30
2019-03-26T22:27:38.608Z,87.30
2019-03-26T22:30:09.386Z,87.50
2019-03-26T22:32:37.913Z,87.40
2019-03-26T22:35:27.213Z,87.30
2019-03-26T22:37:55.666Z,87.00
2019-03-26T22:40:24.216Z,86.80
2019-03-26T22:42:52.711Z,87.70
2019-03-26T22:45:21.166Z,89.40
2019-03-26T22:47:49.753Z,89.40
2019-03-26T22:50:18.238Z,89.00
2019-03-26T22:52:46.709Z,88.40
2019-03-26T22:55:15.584Z,88.00
2019-03-26T22:57:44.155Z,88.20
2019-03-26T23:00:15.769Z,88.00
2019-03-26T23:02:44.287Z,87.20
2019-03-26T23:05:13.634Z,86.90
2019-03-26T23:07:42.143Z,87.00
2019-03-26T23:10:11.244Z,87.70
2019-03-26T23:12:40.022Z,87.70
2019-03-26T23:15:23.362Z,87.20
2019-03-26T23:17:52.014Z,88.10
2019-03-26T23:20:20.569Z,88.70
2019-03-26T23:22:49.293Z,89.30
2019-03-26T23:25:17.813Z,89.80
2019-03-26T23:27:46.315Z,89.60
2019-03-26T23:30:15.519Z,88.50
2019-03-26T23:32:43.950Z,87.90
2019-03-26T23:35:13.321Z,87.30
2019-03-26T23:37:41.804Z,87.70
2019-03-26T23:40:11.364Z,88.40
2019-03-26T23:42:39.873Z,88.40
2019-03-26T23:45:09.024Z,88.40
2019-03-26T23:47:37.479Z,88.70
2019-03-26T23:50:09.847Z,89.00
2019-03-26T23:52:38.354Z,89.00
2019-03-26T23:55:07.960Z,88.90
2019-03-26T23:57:37.515Z,90.50
